Terminal Aerodrome Forecast
Issued by NWS Paducah, KY

Home | Current Version | Previous Version | Graphics & Text | Print | Product List | Glossary On
Versions: 1 2 3 4 5 6 7 8 9 10 11 12 13 14 15 16 17 18 19 20 21 22 23
000
FTUS43 KPAH 050259 AAB
TAFEVV
TAF AMD
KEVV 050259Z 0503/0524 00000KT 4SM BR BKN250
      TEMPO 0503/0507 2SM BR
     FM051400 10004KT P6SM SCT040=

USA.gov is the U.S. government's official web portal to all federal, state and local government web resources and services.